Time;durP1;ratioP1;P1;durP2;ratioP2;P2;SDS_P1;SDS_P2;PMS_P1;PMS_P2;Temp;Humidity;BMP_temperature;BMP_pressure;BME280_temperature;BME280_humidity;BME280_pressure;Samples;Min_cycle;Max_cycle;Signal;HPM_P1;HPM_P2
2021/09/18 00:01:07;;;;;;;12.25;6.97;;;;;;;12.32;79.84;96221.34;5092376;28;20040;-77
2021/09/18 00:03:34;;;;;;;11.90;7.00;;;;;;;12.32;79.71;96218.59;5092819;28;20048;-77
2021/09/18 00:06:01;;;;;;;10.05;6.88;;;;;;;12.30;79.80;96218.16;5092756;28;20074;-78
2021/09/18 00:08:27;;;;;;;9.27;6.72;;;;;;;12.30;80.25;96212.69;5092254;28;20051;-77
2021/09/18 00:10:53;;;;;;;11.10;7.32;;;;;;;12.32;80.43;96215.88;5093001;28;20067;-79
2021/09/18 00:13:20;;;;;;;11.27;7.03;;;;;;;12.38;79.32;96212.63;5092250;28;20036;-78
2021/09/18 00:15:46;;;;;;;8.98;6.55;;;;;;;12.44;79.01;96218.69;5092421;28;20044;-77
2021/09/18 00:18:14;;;;;;;10.90;6.93;;;;;;;12.43;78.84;96214.38;5092177;28;20415;-77
2021/09/18 00:20:41;;;;;;;11.98;6.95;;;;;;;12.39;79.10;96214.22;5092669;28;20047;-78
2021/09/18 00:23:07;;;;;;;11.23;6.75;;;;;;;12.36;79.13;96214.09;5091827;28;20036;-77
2021/09/18 00:25:34;;;;;;;10.65;7.70;;;;;;;12.32;79.81;96213.16;5092847;28;20394;-80
2021/09/18 00:28:00;;;;;;;13.07;6.78;;;;;;;12.27;79.82;96217.69;5092514;28;20068;-77
2021/09/18 00:30:27;;;;;;;10.40;6.70;;;;;;;12.23;79.71;96208.56;5092011;28;20051;-79
2021/09/18 00:32:53;;;;;;;11.10;6.95;;;;;;;12.16;79.29;96213.75;5092546;28;20052;-79
2021/09/18 00:35:21;;;;;;;13.32;7.25;;;;;;;12.13;79.50;96217.13;5091782;28;20052;-78
2021/09/18 00:37:48;;;;;;;11.23;6.80;;;;;;;12.11;79.53;96219.41;5092465;28;20036;-78
2021/09/18 00:40:14;;;;;;;11.98;6.53;;;;;;;12.06;79.65;96214.16;5091884;28;20116;-76
2021/09/18 00:42:41;;;;;;;9.43;6.63;;;;;;;12.03;79.48;96212.06;5092146;28;20134;-79
2021/09/18 00:45:08;;;;;;;9.73;6.88;;;;;;;12.01;79.55;96208.88;5091555;28;20044;-77
2021/09/18 00:47:35;;;;;;;10.02;6.32;;;;;;;12.00;79.65;96207.25;5092164;28;20055;-78
2021/09/18 00:50:02;;;;;;;10.05;6.50;;;;;;;11.99;79.88;96208.38;5091566;28;20059;-76
2021/09/18 00:52:29;;;;;;;13.07;6.45;;;;;;;11.97;79.81;96213.38;5091876;28;20059;-79
2021/09/18 00:54:56;;;;;;;11.02;6.43;;;;;;;11.96;79.88;96211.78;5092239;28;20040;-76
2021/09/18 00:57:23;;;;;;;9.75;6.53;;;;;;;11.94;80.15;96214.03;5091575;28;20040;-79
2021/09/18 00:59:50;;;;;;;11.20;6.90;;;;;;;11.92;79.61;96210.84;5091671;28;20052;-77
2021/09/18 01:02:16;;;;;;;11.65;7.15;;;;;;;11.93;79.73;96207.00;5091541;28;20044;-78
2021/09/18 01:04:43;;;;;;;10.40;6.80;;;;;;;11.93;80.39;96215.16;5092030;28;20040;-78
2021/09/18 01:07:10;;;;;;;11.55;6.95;;;;;;;11.92;80.18;96210.84;5091176;28;20056;-79
2021/09/18 01:09:39;;;;;;;10.77;6.80;;;;;;;11.91;80.47;96203.81;5091812;28;20059;-78
2021/09/18 01:12:06;;;;;;;10.60;6.30;;;;;;;11.94;79.60;96214.03;5091126;28;20509;-78
2021/09/18 01:14:33;;;;;;;9.57;6.63;;;;;;;11.94;79.28;96214.84;5091597;28;20044;-77
2021/09/18 01:17:00;;;;;;;9.30;6.57;;;;;;;11.91;79.29;96214.72;5091502;28;20036;-78
2021/09/18 01:19:26;;;;;;;11.23;6.97;;;;;;;11.86;78.95;96218.44;5091110;28;20055;-79
2021/09/18 01:21:53;;;;;;;9.20;6.22;;;;;;;11.80;79.30;96224.34;5091495;28;20059;-77
2021/09/18 01:24:21;;;;;;;11.48;6.20;;;;;;;11.76;78.97;96213.31;5090612;28;20036;-79
2021/09/18 01:26:47;;;;;;;9.38;6.78;;;;;;;11.72;78.99;96212.38;5091493;28;20051;-78
2021/09/18 01:29:14;;;;;;;11.00;6.43;;;;;;;11.68;79.24;96216.88;5091079;28;20047;-77
2021/09/18 01:31:41;;;;;;;10.68;7.18;;;;;;;11.67;79.65;96221.53;5091428;28;20071;-78
2021/09/18 01:34:08;;;;;;;12.27;6.45;;;;;;;11.68;79.42;96220.41;5089695;28;20043;-78
2021/09/18 01:36:35;;;;;;;11.38;6.55;;;;;;;11.71;79.22;96221.69;5091413;28;20047;-78
2021/09/18 01:39:02;;;;;;;10.25;6.43;;;;;;;11.71;79.64;96216.22;5090837;28;20048;-75
2021/09/18 01:41:31;;;;;;;11.18;7.10;;;;;;;11.70;79.58;96218.16;5091088;28;20048;-78
2021/09/18 01:43:58;;;;;;;9.73;6.32;;;;;;;11.72;78.65;96221.34;5091244;28;20047;-79
2021/09/18 01:46:25;;;;;;;10.25;6.18;;;;;;;11.70;78.74;96220.88;5090168;28;20117;-78
2021/09/18 01:48:51;;;;;;;10.48;6.05;;;;;;;11.72;78.23;96224.06;5091114;28;20047;-78
2021/09/18 01:51:18;;;;;;;10.88;6.13;;;;;;;11.75;78.06;96236.28;5090909;28;20048;-78
2021/09/18 01:53:45;;;;;;;9.00;6.30;;;;;;;11.68;77.96;96231.31;5089364;28;20101;-79
2021/09/18 01:56:12;;;;;;;9.52;6.55;;;;;;;11.62;78.64;96224.44;5090729;28;20095;-78
2021/09/18 01:58:40;;;;;;;10.82;5.85;;;;;;;11.54;78.84;96228.03;5091197;28;20511;-78
2021/09/18 02:01:07;;;;;;;10.02;6.97;;;;;;;11.49;79.13;96226.28;5090651;28;20044;-81
2021/09/18 02:03:34;;;;;;;10.35;6.78;;;;;;;11.43;79.70;96227.56;5091202;28;20055;-80
2021/09/18 02:06:01;;;;;;;11.93;6.93;;;;;;;11.42;79.85;96219.69;5091092;28;20052;-77
2021/09/18 02:08:28;;;;;;;10.82;6.90;;;;;;;11.40;79.76;96217.31;5090853;28;20055;-77
2021/09/18 02:10:56;;;;;;;9.18;6.13;;;;;;;11.38;79.59;96213.28;5091166;28;20048;-78
2021/09/18 02:13:25;;;;;;;11.40;6.80;;;;;;;11.39;80.02;96217.66;5090578;28;20047;-79
2021/09/18 02:15:53;;;;;;;10.02;6.22;;;;;;;11.39;80.44;96214.91;5091117;28;20044;-78
2021/09/18 02:18:19;;;;;;;9.80;6.32;;;;;;;11.36;80.16;96216.34;5090612;28;20131;-77
2021/09/18 02:20:46;;;;;;;8.57;6.13;;;;;;;11.34;80.13;96220.56;5090748;28;20043;-78
2021/09/18 02:23:13;;;;;;;8.07;5.78;;;;;;;11.33;79.96;96216.19;5089959;28;20048;-78
2021/09/18 02:25:41;;;;;;;9.32;5.68;;;;;;;11.30;79.06;96216.88;5091041;28;20042;-78
2021/09/18 02:28:08;;;;;;;9.25;6.28;;;;;;;11.27;79.14;96220.22;5090462;28;20055;-79
2021/09/18 02:30:37;;;;;;;13.15;6.13;;;;;;;11.23;79.35;96218.19;5090820;28;20051;-79
2021/09/18 02:33:06;;;;;;;11.27;6.15;;;;;;;11.23;79.68;96212.72;5090650;28;20047;-78
2021/09/18 02:35:33;;;;;;;10.13;6.13;;;;;;;11.22;79.46;96221.19;5090478;28;20052;-79
2021/09/18 02:38:03;;;;;;;11.18;6.13;;;;;;;11.18;79.49;96215.63;5090794;28;20055;-78
2021/09/18 02:40:30;;;;;;;8.70;5.78;;;;;;;11.27;79.32;96222.97;5090115;28;20048;-79
2021/09/18 02:42:59;;;;;;;9.68;6.63;;;;;;;11.28;79.01;96224.59;5090782;28;20048;-78
2021/09/18 02:45:26;;;;;;;8.80;5.82;;;;;;;11.31;78.79;96215.75;5090251;28;20494;-78
2021/09/18 02:47:52;;;;;;;10.52;6.07;;;;;;;11.31;78.26;96222.00;5090586;28;20044;-79
2021/09/18 02:50:22;;;;;;;8.98;5.53;;;;;;;11.27;78.09;96220.22;5090073;28;20044;-79
2021/09/18 02:52:48;;;;;;;10.02;6.00;;;;;;;11.18;78.29;96226.53;5090450;28;20048;-79
2021/09/18 02:55:15;;;;;;;9.85;6.13;;;;;;;11.16;78.93;96226.03;5090322;28;20040;-79
2021/09/18 02:57:43;;;;;;;9.68;6.10;;;;;;;11.18;78.48;96221.06;5091764;28;20052;-79
2021/09/18 03:00:12;;;;;;;11.07;5.60;;;;;;;11.05;78.80;96216.59;5093504;28;20456;-78
2021/09/18 03:02:39;;;;;;;8.88;5.57;;;;;;;11.02;79.22;96224.66;5094268;28;20051;-79
2021/09/18 03:05:07;;;;;;;10.32;6.40;;;;;;;10.96;78.62;96218.53;5093637;28;20044;-79
2021/09/18 03:07:35;;;;;;;9.55;6.03;;;;;;;10.93;79.19;96219.19;5094261;28;20052;-78
2021/09/18 03:10:02;;;;;;;9.73;5.95;;;;;;;10.90;79.29;96219.84;5093512;28;20044;-77
2021/09/18 03:12:28;;;;;;;9.88;6.68;;;;;;;10.87;79.28;96210.41;5093979;28;20040;-79
2021/09/18 03:14:55;;;;;;;9.10;6.18;;;;;;;10.87;79.53;96209.59;5094030;28;20040;-78
2021/09/18 03:17:21;;;;;;;12.73;5.88;;;;;;;10.85;79.32;96212.63;5093589;28;20063;-78
2021/09/18 03:19:51;;;;;;;10.23;5.95;;;;;;;10.84;79.15;96199.34;5092535;28;20052;-78
2021/09/18 03:22:17;;;;;;;11.45;5.80;;;;;;;10.84;79.29;96200.13;5093059;28;20044;-79
2021/09/18 03:24:45;;;;;;;8.25;5.97;;;;;;;10.84;79.59;96204.78;5093918;28;20040;-78
2021/09/18 03:27:14;;;;;;;10.45;6.40;;;;;;;10.86;79.95;96199.84;5093253;28;20040;-78
2021/09/18 03:29:40;;;;;;;10.80;6.15;;;;;;;10.85;79.17;96200.94;5093458;28;20522;-79
2021/09/18 03:32:07;;;;;;;9.65;6.18;;;;;;;10.84;79.32;96204.78;5092906;28;20044;-77
2021/09/18 03:34:33;;;;;;;10.98;6.15;;;;;;;10.82;79.69;96202.41;5093664;28;20531;-78
2021/09/18 03:37:00;;;;;;;13.98;6.10;;;;;;;10.85;80.32;96200.94;5093637;28;20052;-79
2021/09/18 03:39:26;;;;;;;11.25;5.97;;;;;;;10.83;79.84;96198.53;5093109;28;20491;-78
2021/09/18 03:41:54;;;;;;;10.30;5.70;;;;;;;10.83;79.43;96192.31;5093298;28;20059;-78
2021/09/18 03:44:21;;;;;;;9.52;5.88;;;;;;;10.80;78.99;96201.91;5092907;28;20055;-79
2021/09/18 03:46:47;;;;;;;8.45;6.00;;;;;;;10.80;79.57;96204.63;5093230;28;20052;-78
2021/09/18 03:49:14;;;;;;;9.23;5.70;;;;;;;10.80;79.73;96203.81;5092695;28;20051;-78
2021/09/18 03:51:40;;;;;;;10.40;5.82;;;;;;;10.81;79.63;96208.19;5092926;28;20431;-78
2021/09/18 03:54:06;;;;;;;8.82;5.80;;;;;;;10.76;79.36;96209.13;5092696;28;20545;-77
2021/09/18 03:56:33;;;;;;;11.07;6.40;;;;;;;10.74;79.33;96199.69;5093027;28;20048;-77
2021/09/18 03:59:01;;;;;;;10.25;5.88;;;;;;;10.73;79.50;96208.97;5093051;28;20419;-79
2021/09/18 04:01:28;;;;;;;9.13;6.20;;;;;;;10.71;79.59;96201.13;5092634;28;20040;-78
2021/09/18 04:03:55;;;;;;;8.70;6.00;;;;;;;10.69;79.71;96206.88;5093102;28;20079;-79
2021/09/18 04:06:22;;;;;;;10.75;5.68;;;;;;;10.68;79.30;96207.22;5092730;28;20117;-77
2021/09/18 04:08:48;;;;;;;7.97;5.43;;;;;;;10.65;79.25;96208.66;5092702;28;20048;-79
2021/09/18 04:11:15;;;;;;;9.63;5.78;;;;;;;10.61;79.15;96209.63;5092252;28;20047;-78
2021/09/18 04:13:41;;;;;;;9.93;5.85;;;;;;;10.58;79.39;96210.25;5092906;28;20056;-78
2021/09/18 04:16:09;;;;;;;10.73;6.30;;;;;;;10.55;79.24;96206.28;5092350;28;20047;-78
2021/09/18 04:18:35;;;;;;;9.23;6.03;;;;;;;10.52;79.03;96204.19;5092797;28;20490;-78
2021/09/18 04:21:02;;;;;;;9.80;6.15;;;;;;;10.48;79.46;96205.94;5091970;28;20498;-77
2021/09/18 04:23:30;;;;;;;7.53;5.38;;;;;;;10.45;79.43;96206.59;5091946;28;20521;-77
2021/09/18 04:25:56;;;;;;;7.85;5.35;;;;;;;10.45;79.28;96203.88;5092523;28;20044;-79
2021/09/18 04:28:23;;;;;;;8.52;6.00;;;;;;;10.42;79.41;96204.50;5091991;28;20051;-79
2021/09/18 04:30:49;;;;;;;12.98;6.07;;;;;;;10.40;79.66;96209.47;5092276;28;20510;-77
2021/09/18 04:33:17;;;;;;;9.43;5.93;;;;;;;10.39;79.47;96213.31;5092280;28;20414;-77
2021/09/18 04:35:43;;;;;;;10.45;6.40;;;;;;;10.36;79.34;96205.78;5092430;28;20044;-78
2021/09/18 04:38:10;;;;;;;7.70;5.40;;;;;;;10.35;79.21;96209.63;5091875;28;20511;-79
2021/09/18 04:40:36;;;;;;;9.10;5.78;;;;;;;10.29;79.61;96208.19;5092059;28;20502;-78
2021/09/18 04:43:03;;;;;;;8.98;5.63;;;;;;;10.27;79.82;96213.13;5091813;28;20522;-78
2021/09/18 04:45:29;;;;;;;9.30;5.32;;;;;;;10.28;80.34;96214.72;5092304;28;20055;-78
2021/09/18 04:47:56;;;;;;;8.45;6.22;;;;;;;10.29;80.22;96217.16;5092044;28;20048;-78
2021/09/18 04:50:24;;;;;;;10.63;6.82;;;;;;;10.34;80.65;96218.94;5092064;28;20040;-78
2021/09/18 04:52:50;;;;;;;13.50;7.07;;;;;;;10.38;81.49;96222.59;5091575;28;20044;-79
2021/09/18 04:55:17;;;;;;;11.57;6.45;;;;;;;10.47;80.28;96220.69;5091388;28;20055;-78
2021/09/18 04:57:43;;;;;;;9.02;6.07;;;;;;;10.51;79.66;96224.38;5092126;28;20521;-77
2021/09/18 05:00:11;;;;;;;10.35;6.15;;;;;;;10.51;80.11;96232.53;5091414;28;20048;-78
2021/09/18 05:02:38;;;;;;;10.40;6.95;;;;;;;10.50;79.52;96233.66;5091961;28;20040;-78
2021/09/18 05:05:05;;;;;;;11.75;6.45;;;;;;;10.53;79.69;96233.00;5091700;28;20056;-80
2021/09/18 05:07:33;;;;;;;10.60;6.68;;;;;;;10.55;79.85;96230.78;5091912;28;20047;-79
2021/09/18 05:09:59;;;;;;;9.80;6.53;;;;;;;10.50;79.61;96239.09;5091611;28;20059;-78
2021/09/18 05:12:26;;;;;;;10.07;6.95;;;;;;;10.54;79.55;96240.03;5091216;28;20040;-78
2021/09/18 05:14:52;;;;;;;9.88;6.43;;;;;;;10.56;79.80;96243.25;5091613;28;20139;-79
2021/09/18 05:17:19;;;;;;;9.15;6.20;;;;;;;10.56;79.93;96242.47;5091234;28;20040;-79
2021/09/18 05:19:45;;;;;;;8.63;6.03;;;;;;;10.52;79.36;96239.56;5091143;28;20048;-79
2021/09/18 05:22:12;;;;;;;11.05;6.60;;;;;;;10.51;80.10;96243.41;5090072;28;20051;-79
2021/09/18 05:24:39;;;;;;;11.48;6.40;;;;;;;10.57;80.50;96244.88;5091671;28;20047;-79
2021/09/18 05:27:06;;;;;;;9.18;6.13;;;;;;;10.59;80.55;96245.34;5090926;28;20510;-79
2021/09/18 05:29:33;;;;;;;9.60;6.07;;;;;;;10.63;80.70;96249.03;5091632;28;20040;-78
2021/09/18 05:31:59;;;;;;;10.13;6.15;;;;;;;10.68;80.55;96256.22;5091508;28;20047;-79
2021/09/18 05:34:26;;;;;;;8.02;5.88;;;;;;;10.67;79.75;96260.09;5090960;28;20071;-77
2021/09/18 05:36:52;;;;;;;9.50;5.88;;;;;;;10.69;80.13;96257.81;5091319;28;20044;-78
2021/09/18 05:39:19;;;;;;;11.77;6.75;;;;;;;10.70;80.43;96260.25;5091183;28;20120;-78
2021/09/18 05:41:46;;;;;;;9.85;6.10;;;;;;;10.73;80.48;96258.00;5091143;28;20051;-79
2021/09/18 05:44:13;;;;;;;10.15;6.00;;;;;;;10.79;80.29;96257.50;5090779;28;20055;-79
2021/09/18 05:46:39;;;;;;;10.57;6.50;;;;;;;10.83;80.15;96260.41;5091346;28;20044;-78
2021/09/18 05:49:06;;;;;;;11.02;5.85;;;;;;;10.86;80.25;96251.59;5090952;28;20044;-78
2021/09/18 05:51:32;;;;;;;10.93;6.30;;;;;;;10.88;80.31;96254.78;5091418;28;20044;-78
2021/09/18 05:53:59;;;;;;;8.60;5.57;;;;;;;10.95;79.46;96252.38;5091080;28;20055;-78
2021/09/18 05:56:25;;;;;;;9.90;5.78;;;;;;;11.01;78.92;96253.78;5090637;28;20052;-78
2021/09/18 05:58:53;;;;;;;7.47;5.18;;;;;;;11.07;78.91;96254.44;5091365;28;20383;-78
2021/09/18 06:01:19;;;;;;;12.05;5.78;;;;;;;11.13;78.47;96253.94;5090740;28;20048;-80
2021/09/18 06:03:46;;;;;;;7.70;5.75;;;;;;;11.08;78.61;96258.78;5091202;28;20048;-78
2021/09/18 06:06:12;;;;;;;9.32;5.72;;;;;;;11.09;78.85;96258.44;5090731;28;20044;-79
2021/09/18 06:08:39;;;;;;;8.25;6.35;;;;;;;11.10;79.33;96257.31;5091222;28;20067;-78
2021/09/18 06:11:06;;;;;;;9.20;6.25;;;;;;;11.19;80.27;96260.03;5090506;28;20052;-77
2021/09/18 06:13:33;;;;;;;10.15;6.80;;;;;;;11.30;79.14;96260.47;5090890;28;20059;-78
2021/09/18 06:16:01;;;;;;;11.55;6.40;;;;;;;11.35;79.25;96263.03;5091058;28;20136;-78
2021/09/18 06:18:28;;;;;;;8.80;5.75;;;;;;;11.40;79.86;96265.59;5090005;28;20048;-78
2021/09/18 06:20:56;;;;;;;14.15;6.75;;;;;;;11.45;80.04;96266.22;5090740;28;20048;-77
2021/09/18 06:23:23;;;;;;;11.93;7.28;;;;;;;11.55;79.52;96259.59;5090016;28;20119;-79
2021/09/18 06:25:49;;;;;;;11.20;6.88;;;;;;;11.60;79.59;96264.88;5090917;28;20525;-78
2021/09/18 06:28:16;;;;;;;13.20;6.35;;;;;;;11.70;79.28;96267.25;5090329;28;20043;-77
2021/09/18 06:30:42;;;;;;;8.65;6.30;;;;;;;11.77;79.00;96270.25;5090917;28;20048;-78
2021/09/18 06:33:10;;;;;;;11.85;7.82;;;;;;;11.84;78.64;96261.59;5093810;28;20048;-78
2021/09/18 06:35:37;;;;;;;9.35;6.63;;;;;;;11.87;78.81;96262.88;5094896;28;20070;-79
2021/09/18 06:38:04;;;;;;;13.52;6.53;;;;;;;11.89;79.09;96260.63;5094464;28;20044;-78
2021/09/18 06:40:31;;;;;;;13.13;7.35;;;;;;;12.05;79.37;96263.59;5094743;28;20048;-78
2021/09/18 06:42:57;;;;;;;14.13;7.20;;;;;;;12.18;79.10;96257.91;5094436;28;20048;-79
2021/09/18 06:45:24;;;;;;;11.07;7.00;;;;;;;12.30;78.75;96264.56;5094183;28;20407;-79
2021/09/18 06:47:50;;;;;;;11.32;7.97;;;;;;;12.39;78.74;96262.59;5094583;28;20051;-77
2021/09/18 06:50:18;;;;;;;13.35;8.70;;;;;;;12.49;78.66;96264.94;5093961;28;20063;-78
2021/09/18 06:52:44;;;;;;;15.55;9.10;;;;;;;12.54;79.07;96264.72;5094101;28;20040;-78
2021/09/18 06:55:11;;;;;;;14.50;10.00;;;;;;;12.56;79.28;96265.19;5093952;28;20044;-79
2021/09/18 06:57:38;;;;;;;15.52;10.07;;;;;;;12.65;79.34;96260.47;5094329;28;20624;-78
2021/09/18 07:00:07;;;;;;;14.95;9.95;;;;;;;12.70;79.54;96260.25;5093642;28;20074;-78
2021/09/18 07:02:33;;;;;;;17.30;10.73;;;;;;;12.79;79.00;96266.47;5093939;28;20052;-78
2021/09/18 07:05:01;;;;;;;17.13;10.65;;;;;;;13.06;79.61;96261.56;5094343;28;20048;-79
2021/09/18 07:07:29;;;;;;;18.17;9.68;;;;;;;13.98;76.82;96265.88;5094095;28;20571;-79
2021/09/18 07:09:56;;;;;;;12.30;8.48;;;;;;;15.04;73.68;96264.84;5094358;28;20105;-80
2021/09/18 07:12:23;;;;;;;13.60;8.73;;;;;;;16.14;70.24;96267.75;5093602;28;20053;-78
2021/09/18 07:14:49;;;;;;;12.15;7.50;;;;;;;16.99;66.33;96267.28;5094120;28;20741;-80
2021/09/18 07:17:16;;;;;;;15.20;7.82;;;;;;;17.90;64.79;96270.22;5093486;28;20439;-78
2021/09/18 07:19:42;;;;;;;11.70;7.28;;;;;;;18.78;61.48;96272.00;5093930;28;20056;-79
2021/09/18 07:22:08;;;;;;;9.82;7.93;;;;;;;19.48;59.07;96274.09;5092826;28;20052;-79
2021/09/18 07:24:36;;;;;;;11.43;8.05;;;;;;;20.04;55.83;96273.06;5093959;28;20055;-79
2021/09/18 07:27:03;;;;;;;11.80;8.95;;;;;;;20.55;55.49;96279.84;5093322;28;20521;-79
2021/09/18 07:29:30;;;;;;;11.27;8.25;;;;;;;20.90;52.21;96276.50;5093538;28;20388;-77
2021/09/18 07:31:56;;;;;;;11.30;8.13;;;;;;;21.38;52.04;96287.44;5093717;28;20055;-76
2021/09/18 07:34:23;;;;;;;10.65;8.07;;;;;;;21.76;50.09;96280.41;5093115;28;20048;-78
2021/09/18 07:36:50;;;;;;;12.40;8.95;;;;;;;21.83;48.89;96287.97;5093438;28;20044;-79
2021/09/18 07:39:17;;;;;;;10.52;8.23;;;;;;;21.72;50.49;96290.72;5093211;28;20063;-79
2021/09/18 07:41:44;;;;;;;13.90;8.50;;;;;;;21.97;50.41;96287.19;5093514;28;20051;-79
2021/09/18 07:44:11;;;;;;;8.70;6.93;;;;;;;22.21;48.90;96289.25;5092252;28;20055;-79
2021/09/18 07:46:38;;;;;;;9.40;7.38;;;;;;;21.61;48.84;96289.88;5093424;28;20048;-78
2021/09/18 07:49:04;;;;;;;11.57;7.93;;;;;;;21.84;50.17;96289.56;5092820;28;20051;-77
2021/09/18 07:51:31;;;;;;;9.82;7.25;;;;;;;21.99;47.67;96291.19;5093312;28;20048;-79
2021/09/18 07:53:57;;;;;;;10.18;7.57;;;;;;;21.10;49.06;96288.88;5092482;28;20048;-77
2021/09/18 07:56:23;;;;;;;11.82;7.47;;;;;;;21.24;50.68;96292.88;5092489;28;20044;-78
2021/09/18 07:58:54;;;;;;;11.18;7.95;;;;;;;21.63;49.01;96291.09;5093405;28;20063;-78
2021/09/18 08:01:20;;;;;;;8.95;7.43;;;;;;;22.09;49.28;96287.63;5092667;28;20054;-80
2021/09/18 08:03:47;;;;;;;9.75;7.88;;;;;;;22.13;46.77;96294.00;5093107;28;20520;-80
2021/09/18 08:06:13;;;;;;;9.48;7.65;;;;;;;22.35;48.03;96288.47;5092656;28;20495;-79
2021/09/18 08:08:40;;;;;;;11.82;7.60;;;;;;;22.16;47.99;96280.53;5092931;28;20499;-77
2021/09/18 08:11:06;;;;;;;14.40;7.20;;;;;;;22.24;48.13;96276.53;5091828;28;20048;-78
2021/09/18 08:13:33;;;;;;;11.80;6.72;;;;;;;22.79;48.28;96278.91;5092849;28;20051;-79
2021/09/18 08:16:01;;;;;;;11.45;7.35;;;;;;;23.17;45.98;96269.69;5092518;28;20052;-79
2021/09/18 08:18:28;;;;;;;8.95;6.53;;;;;;;23.09;46.84;96275.69;5092629;28;20039;-80
2021/09/18 08:20:54;;;;;;;7.85;6.65;;;;;;;22.64;47.29;96284.47;5092801;28;20044;-78
2021/09/18 08:23:21;;;;;;;10.50;7.00;;;;;;;22.35;47.38;96278.16;5091805;28;20044;-78
2021/09/18 08:25:47;;;;;;;9.85;7.43;;;;;;;22.18;47.85;96283.69;5092610;28;20044;-78
2021/09/18 08:28:14;;;;;;;8.15;6.70;;;;;;;22.78;47.73;96280.88;5092018;28;20509;-78
2021/09/18 08:30:41;;;;;;;7.97;6.75;;;;;;;22.30;46.75;96280.53;5092702;28;20059;-79
2021/09/18 08:33:09;;;;;;;10.93;6.00;;;;;;;22.75;47.91;96283.66;5091966;28;20048;-79
2021/09/18 08:35:35;;;;;;;8.95;6.35;;;;;;;22.97;45.96;96285.25;5092399;28;20052;-80
2021/09/18 08:38:02;;;;;;;7.80;6.57;;;;;;;23.39;45.91;96283.53;5092244;28;20055;-79
2021/09/18 08:40:29;;;;;;;7.93;6.18;;;;;;;23.87;44.26;96282.91;5092427;28;20051;-80
2021/09/18 08:42:55;;;;;;;7.75;6.40;;;;;;;24.22;46.33;96279.06;5092312;28;20048;-80
2021/09/18 08:45:22;;;;;;;7.88;5.93;;;;;;;24.76;44.25;96282.22;5091975;28;20548;-79
2021/09/18 08:47:50;;;;;;;7.57;6.07;;;;;;;25.00;43.07;96288.75;5092148;28;20543;-79
2021/09/18 08:50:20;;;;;;;9.45;6.50;;;;;;;24.97;41.67;96289.59;5091744;28;20043;-79
2021/09/18 08:52:47;;;;;;;9.57;6.43;;;;;;;24.26;42.17;96279.84;5091880;28;20498;-77
2021/09/18 08:55:15;;;;;;;9.48;6.00;;;;;;;23.53;42.94;96280.66;5091554;28;20040;-79
2021/09/18 08:57:42;;;;;;;10.05;7.07;;;;;;;23.02;45.03;96282.06;5092335;28;20056;-80
2021/09/18 09:00:10;;;;;;;11.80;7.18;;;;;;;22.74;47.34;96280.09;5091588;28;20047;-78
2021/09/18 09:02:39;;;;;;;10.27;6.22;;;;;;;22.36;48.10;96273.41;5091749;28;20659;-78
2021/09/18 09:05:08;;;;;;;11.70;6.95;;;;;;;21.50;47.68;96275.19;5091265;28;20051;-79
2021/09/18 09:07:36;;;;;;;8.02;5.95;;;;;;;21.03;50.60;96280.50;5091820;28;20138;-79
2021/09/18 09:10:06;;;;;;;10.82;6.05;;;;;;;20.79;49.98;96276.44;5091483;28;20044;-79
2021/09/18 09:12:34;;;;;;;9.18;5.63;;;;;;;20.42;49.86;96276.56;5091761;28;20530;-79
2021/09/18 09:15:03;;;;;;;9.57;6.60;;;;;;;20.01;53.75;96262.81;5091706;28;20056;-79
2021/09/18 09:17:31;;;;;;;7.97;5.80;;;;;;;19.48;53.45;96271.31;5091451;28;20044;-79
2021/09/18 09:19:59;;;;;;;7.50;6.00;;;;;;;19.09;52.76;96267.28;5091406;28;20062;-80
2021/09/18 09:22:42;;;;;;;8.20;5.70;;;;;;;19.09;54.18;96261.78;5090523;28;20406;-78
2021/09/18 09:25:32;;;;;;;8.18;5.78;;;;;;;19.38;52.82;96266.47;5091182;28;20047;-80
2021/09/18 09:28:00;;;;;;;8.30;6.20;;;;;;;19.34;53.44;96262.09;5091477;28;20047;-79
2021/09/18 09:30:29;;;;;;;11.10;6.45;;;;;;;19.48;53.07;96257.50;5091007;28;20479;-78
2021/09/18 09:32:55;;;;;;;8.07;5.63;;;;;;;19.98;55.57;96252.50;5091385;28;20040;-80
2021/09/18 09:35:22;;;;;;;6.88;5.30;;;;;;;20.16;50.99;96251.88;5091188;28;20509;-78
2021/09/18 09:37:54;;;;;;;6.85;5.47;;;;;;;19.95;50.99;96252.47;5091468;28;20044;-79
2021/09/18 09:40:32;;;;;;;6.55;4.78;;;;;;;20.03;52.28;96254.91;5091060;28;20044;-80
2021/09/18 09:42:59;;;;;;;6.00;4.50;;;;;;;20.18;49.01;96250.28;5091433;28;20109;-78
2021/09/18 09:45:25;;;;;;;6.65;5.43;;;;;;;20.22;52.59;96253.09;5090803;28;20055;-79
2021/09/18 09:48:03;;;;;;;6.80;5.25;;;;;;;20.44;54.89;96257.59;5091275;28;20044;-79
2021/09/18 09:50:30;;;;;;;6.55;4.93;;;;;;;20.55;53.65;96250.19;5091122;28;20506;-79
2021/09/18 09:52:58;;;;;;;10.10;5.30;;;;;;;20.71;50.82;96251.88;5090725;28;20052;-80
2021/09/18 09:55:25;;;;;;;9.02;6.35;;;;;;;20.89;52.65;96250.00;5090707;28;20051;-77
2021/09/18 09:57:58;;;;;;;8.48;4.93;;;;;;;21.12;51.19;96260.78;5091310;28;20044;-79
2021/09/18 10:00:35;;;;;;;;;;;;;;;21.20;51.54;96254.13;5091281;28;20495;-78
2021/09/18 10:03:02;;;;;;;7.03;5.50;;;;;;;21.29;48.69;96253.72;5090744;28;19920;-76
2021/09/18 10:05:28;;;;;;;7.35;5.68;;;;;;;21.21;47.21;96260.44;5091435;28;20070;-78
2021/09/18 10:07:55;;;;;;;8.23;5.60;;;;;;;21.10;48.56;96258.41;5094518;28;20044;-79
2021/09/18 10:10:23;;;;;;;6.78;5.38;;;;;;;21.16;47.09;96258.06;5094531;28;20047;-78
2021/09/18 10:12:51;;;;;;;8.95;4.65;;;;;;;21.22;48.91;96257.28;5095346;28;20051;-80
2021/09/18 10:15:18;;;;;;;6.97;4.13;;;;;;;21.35;49.76;96260.50;5094648;28;20410;-79
2021/09/18 10:17:47;;;;;;;7.38;4.72;;;;;;;21.49;49.40;96251.47;5095206;28;20047;-79
2021/09/18 10:20:15;;;;;;;5.30;4.13;;;;;;;21.50;50.52;96256.59;5094599;28;20075;-79
2021/09/18 10:25:37;;;;;;;5.15;3.80;;;;;;;21.22;47.54;96262.81;5091095;28;20067;-78
2021/09/18 10:28:08;;;;;;;4.35;3.30;;;;;;;21.10;45.84;96250.13;5094561;28;20594;-79
2021/09/18 10:30:37;;;;;;;4.70;3.33;;;;;;;21.04;46.05;96248.91;5094638;28;20123;-78
2021/09/18 10:33:05;;;;;;;5.82;3.70;;;;;;;20.95;48.17;96248.47;5094551;28;20514;-78
2021/09/18 10:35:51;;;;;;;5.80;4.47;;;;;;;20.88;46.47;96242.91;5095041;28;20047;-78
2021/09/18 10:38:20;;;;;;;6.22;4.38;;;;;;;20.77;48.58;96236.50;5094438;28;20044;-79
2021/09/18 10:41:00;;;;;;;5.32;4.15;;;;;;;20.72;49.33;96234.09;5094663;28;20407;-78
2021/09/18 10:43:29;;;;;;;4.47;3.22;;;;;;;20.63;51.30;96241.97;5094603;28;20036;-79
2021/09/18 10:45:56;;;;;;;5.45;3.88;;;;;;;20.65;48.06;96245.13;5094698;28;20044;-79
2021/09/18 10:48:49;;;;;;;4.53;3.42;;;;;;;20.52;47.46;96237.16;5094096;28;20051;-79
2021/09/18 10:51:36;;;;;;;5.57;3.63;;;;;;;20.51;50.34;96238.31;5094166;28;20047;-80
2021/09/18 10:54:08;;;;;;;7.22;4.22;;;;;;;20.41;49.32;96241.78;5073908;28;20594;-79
2021/09/18 10:57:08;;;;;;;4.70;3.40;;;;;;;20.43;48.59;96233.09;5074500;28;20041;-78
2021/09/18 10:59:42;;;;;;;5.78;3.47;;;;;;;20.42;47.30;96232.31;5073877;28;20047;-80
2021/09/18 11:02:41;;;;;;;4.85;3.88;;;;;;;20.56;49.63;96237.16;5073584;28;20495;-78
2021/09/18 11:05:09;;;;;;;4.00;3.33;;;;;;;20.58;48.22;96235.59;5073688;28;20047;-80
2021/09/18 11:07:42;;;;;;;6.15;3.55;;;;;;;20.66;48.39;96232.88;5074144;28;20518;-81
2021/09/18 11:10:10;;;;;;;7.45;4.25;;;;;;;20.70;47.71;96236.47;5073409;28;20052;-81
2021/09/18 11:12:38;;;;;;;8.63;4.38;;;;;;;20.66;49.17;96224.56;5074155;28;20044;-80
2021/09/18 11:15:07;;;;;;;7.78;4.72;;;;;;;20.67;48.38;96231.69;5074069;28;20049;-80
2021/09/18 11:17:37;;;;;;;7.50;4.30;;;;;;;20.64;47.95;96221.41;5073800;28;20067;-80
2021/09/18 11:20:12;;;;;;;6.43;4.63;;;;;;;20.58;49.23;96219.00;5072701;28;20140;-80
2021/09/18 11:22:40;;;;;;;4.60;3.70;;;;;;;20.54;48.37;96212.66;5082705;28;20044;-81
2021/09/18 11:25:31;;;;;;;4.28;3.03;;;;;;;20.56;47.88;96218.59;5093487;28;20495;-78
2021/09/18 11:28:02;;;;;;;4.65;3.28;;;;;;;20.65;48.00;96217.47;5093349;28;20559;-80
2021/09/18 11:30:40;;;;;;;4.10;2.78;;;;;;;20.77;47.87;96214.34;5093540;28;20143;-79
2021/09/18 11:33:06;;;;;;;4.65;3.22;;;;;;;20.85;46.11;96216.00;5093547;28;20044;-78
2021/09/18 11:35:33;;;;;;;5.20;3.08;;;;;;;20.91;46.53;96211.66;5093813;28;20047;-79